Terminal Aerodrome Forecast
Issued by NWS

Home | Current Version | Previous Version | Text Only | Print | Product List | Glossary On
Versions: 1 2 3 4 5 6 7 8 9 10 11 12
000
FTUS42 TJSJ 261100
TAFJBQ
TAF
TJBQ 261139Z 2612/2712 11005KT P6SM SCT025 SCT040
     FM261430 07012KT P6SM FEW025 SCT050
     FM261730 07012KT P6SM VCSH SCT025 BKN050
     FM262330 11005KT P6SM SCT025=

USA.gov is the U.S. government's official web portal to all federal, state and local government web resources and services.